60R weather

Navasota Municipal Airport
Navasota, Texas, United States

Public forecast

Using degrees Fahrenheit for public forecast. Weather courtesy of forecast.io.

METAR (pilot weather report)

Closest report is Brenham Municipal Airport, 16.4 nm (30.3 km) SW. Retrieved 2019/07/20 08:35 UTC (0 seconds ago):

K11R 200835Z AUTO 16003KT 7SM BKN019 BKN023 25/25 A2997 RMK AO2 LTG DSNT SE T02510251

TAF (pilot weather forecast)

Closest forecast is Easterwood Field, 18.4 nm (34.0 km) NW. Retrieved 2019/07/20 06:27 UTC (2 hours ago):

TAF KCLL 200524Z 2006/2106 17007KT P6SM SCT250 FM200900 18005KT P6SM FEW015 SCT025 TEMPO 2010/2013 BKN016 FM201400 17008KT P6SM SCT015 BKN025 FM201500 18010G17KT P6SM SCT035 FM210100 18008KT P6SM SKC